createdAt,value
2023-04-08T00:00:09.340Z,7.80
2023-04-08T00:03:03.128Z,7.80
2023-04-08T00:05:32.025Z,7.80
2023-04-08T00:08:00.897Z,7.80
2023-04-08T00:10:29.483Z,7.80
2023-04-08T00:12:58.070Z,7.80
2023-04-08T00:15:27.171Z,7.80
2023-04-08T00:17:55.814Z,7.80
2023-04-08T00:20:25.468Z,7.80
2023-04-08T00:22:54.046Z,7.80
2023-04-08T00:25:24.775Z,7.78
2023-04-08T00:27:54.081Z,7.70
2023-04-08T00:30:22.767Z,7.70
2023-04-08T00:32:51.606Z,7.60
2023-04-08T00:35:20.585Z,7.60
2023-04-08T00:37:50.168Z,7.60
2023-04-08T00:40:18.851Z,7.60
2023-04-08T00:42:47.538Z,7.60
2023-04-08T00:45:16.869Z,7.60
2023-04-08T00:47:46.902Z,7.60
2023-04-08T00:50:16.153Z,7.60
2023-04-08T00:52:44.740Z,7.66
2023-04-08T00:55:13.430Z,7.64
2023-04-08T00:57:42.441Z,7.70
2023-04-08T01:00:12.145Z,7.70
2023-04-08T01:03:12.071Z,7.66
2023-04-08T01:05:44.426Z,7.60
2023-04-08T01:08:14.137Z,7.60
2023-04-08T01:10:46.021Z,7.60
2023-04-08T01:13:18.675Z,7.58
2023-04-08T01:15:47.299Z,7.50
2023-04-08T01:18:17.620Z,7.50
2023-04-08T01:20:47.669Z,7.50
2023-04-08T01:23:47.318Z,7.50
2023-04-08T01:26:24.767Z,7.50
2023-04-08T01:28:59.517Z,7.50
2023-04-08T01:31:29.464Z,7.60
2023-04-08T01:34:02.825Z,7.60
2023-04-08T01:36:33.317Z,7.60
2023-04-08T01:39:05.782Z,7.60
2023-04-08T01:41:36.931Z,7.60
2023-04-08T01:44:06.217Z,7.60
2023-04-08T01:46:36.065Z,7.70
2023-04-08T01:49:06.754Z,7.70
2023-04-08T01:51:39.799Z,7.70
2023-04-08T01:54:08.536Z,7.70
2023-04-08T01:56:41.708Z,7.80
2023-04-08T01:59:16.088Z,7.80
2023-04-08T02:01:45.690Z,7.80
2023-04-08T02:04:14.519Z,7.88
2023-04-08T02:06:43.951Z,7.88
2023-04-08T02:09:12.532Z,7.80
2023-04-08T02:11:41.425Z,7.80
2023-04-08T02:14:10.214Z,7.84
2023-04-08T02:17:02.259Z,7.90
2023-04-08T02:19:44.361Z,7.90
2023-04-08T02:22:48.773Z,7.90
2023-04-08T02:25:23.357Z,7.90
2023-04-08T02:27:54.930Z,7.90
2023-04-08T02:30:26.090Z,7.90
2023-04-08T02:32:57.223Z,7.92
2023-04-08T02:35:27.852Z,8.00
2023-04-08T02:37:56.560Z,8.00
2023-04-08T02:40:31.812Z,7.90
2023-04-08T02:43:00.691Z,7.92
2023-04-08T02:45:38.439Z,7.90
2023-04-08T02:48:07.677Z,7.90
2023-04-08T02:50:36.305Z,7.90
2023-04-08T02:53:04.966Z,7.90
2023-04-08T02:55:34.677Z,7.90
2023-04-08T02:58:03.362Z,7.90
2023-04-08T03:00:32.457Z,7.90
2023-04-08T03:03:01.609Z,7.90
2023-04-08T03:05:30.646Z,7.90
2023-04-08T03:07:59.644Z,7.90
2023-04-08T03:10:28.227Z,7.90
2023-04-08T03:12:56.816Z,7.90
2023-04-08T03:15:25.397Z,7.90
2023-04-08T03:17:54.037Z,7.90
2023-04-08T03:20:22.681Z,7.90
2023-04-08T03:22:51.247Z,7.94
2023-04-08T03:25:19.840Z,7.96
2023-04-08T03:27:48.419Z,8.00
2023-04-08T03:30:17.314Z,8.00
2023-04-08T03:32:46.268Z,8.00
2023-04-08T03:35:15.100Z,8.00
2023-04-08T03:37:43.678Z,8.00
2023-04-08T03:40:13.526Z,8.00
2023-04-08T03:42:42.077Z,8.00
2023-04-08T03:45:11.074Z,7.98
2023-04-08T03:47:39.816Z,7.90
2023-04-08T03:50:09.572Z,7.90
2023-04-08T03:52:38.153Z,7.82
2023-04-08T03:55:07.552Z,7.80
2023-04-08T03:57:36.143Z,7.80
2023-04-08T04:00:05.644Z,7.80
2023-04-08T04:02:41.147Z,7.80
2023-04-08T04:05:10.084Z,7.80
2023-04-08T04:07:38.669Z,7.80
2023-04-08T04:10:08.960Z,7.80
2023-04-08T04:12:37.484Z,7.80
2023-04-08T04:15:07.286Z,7.80
2023-04-08T04:17:35.894Z,7.78
2023-04-08T04:20:08.625Z,7.80
2023-04-08T04:22:37.137Z,7.80
2023-04-08T04:25:06.708Z,7.80
2023-04-08T04:27:36.993Z,7.80
2023-04-08T04:30:07.414Z,7.80
2023-04-08T04:32:36.014Z,7.80
2023-04-08T04:35:05.413Z,7.80
2023-04-08T04:37:33.973Z,7.70
2023-04-08T04:40:05.151Z,7.70
2023-04-08T04:42:33.902Z,7.70
2023-04-08T04:45:02.767Z,7.70
2023-04-08T04:47:33.003Z,7.70
2023-04-08T04:50:01.977Z,7.70
2023-04-08T04:52:31.104Z,7.70
2023-04-08T04:54:59.697Z,7.70
2023-04-08T04:57:28.483Z,7.70
2023-04-08T04:59:57.063Z,7.80
2023-04-08T05:02:26.019Z,7.80
2023-04-08T05:04:55.978Z,7.80
2023-04-08T05:07:24.867Z,7.88
2023-04-08T05:09:54.636Z,7.90
2023-04-08T05:12:23.182Z,7.90
2023-04-08T05:14:51.882Z,7.90
2023-04-08T05:17:20.547Z,7.90
2023-04-08T05:19:49.023Z,7.90
2023-04-08T05:22:17.610Z,7.90
2023-04-08T05:24:46.544Z,8.00
2023-04-08T05:27:15.088Z,8.00
2023-04-08T05:29:43.874Z,8.00
2023-04-08T05:32:12.458Z,8.00
2023-04-08T05:34:41.453Z,8.04
2023-04-08T05:37:09.949Z,8.08
2023-04-08T05:39:38.725Z,8.00
2023-04-08T05:42:07.313Z,8.00
2023-04-08T05:44:36.317Z,8.06
2023-04-08T05:47:04.974Z,8.10
2023-04-08T05:49:34.615Z,8.10
2023-04-08T05:52:04.114Z,8.10
2023-04-08T05:54:32.943Z,8.14
2023-04-08T05:57:01.482Z,8.20
2023-04-08T05:59:30.160Z,8.20
2023-04-08T06:01:58.734Z,8.20
2023-04-08T06:04:27.581Z,8.30
2023-04-08T06:07:00.011Z,8.30
2023-04-08T06:09:28.591Z,8.38
2023-04-08T06:11:57.790Z,8.40
2023-04-08T06:14:26.372Z,8.46
2023-04-08T06:16:57.898Z,8.58
2023-04-08T06:19:26.715Z,8.60
2023-04-08T06:21:59.333Z,8.70
2023-04-08T06:24:29.661Z,8.74
2023-04-08T06:26:58.819Z,8.80
2023-04-08T06:29:27.525Z,8.80
2023-04-08T06:31:56.750Z,8.84
2023-04-08T06:34:25.494Z,8.90
2023-04-08T06:36:53.983Z,8.90
2023-04-08T06:39:22.456Z,9.00
2023-04-08T06:41:51.354Z,9.00
2023-04-08T06:44:36.336Z,9.10
2023-04-08T06:47:05.009Z,9.18
2023-04-08T06:49:33.691Z,9.12
2023-04-08T06:52:02.272Z,10.12
2023-04-08T06:54:30.860Z,10.50
2023-04-08T06:56:59.647Z,10.30
2023-04-08T06:59:28.232Z,10.50
2023-04-08T07:01:57.061Z,11.80
2023-04-08T07:04:26.321Z,12.36
2023-04-08T07:06:54.869Z,12.76
2023-04-08T07:09:23.599Z,13.18
2023-04-08T07:11:52.288Z,13.84
2023-04-08T07:14:20.870Z,13.18
2023-04-08T07:16:49.583Z,12.70
2023-04-08T07:19:18.343Z,12.40
2023-04-08T07:21:47.133Z,12.30
2023-04-08T07:24:16.388Z,12.00
2023-04-08T07:26:45.555Z,11.90
2023-04-08T07:29:14.114Z,11.80
2023-04-08T07:31:45.877Z,11.80
2023-04-08T07:34:14.461Z,12.10
2023-04-08T07:36:43.359Z,12.72
2023-04-08T07:39:11.934Z,12.36
2023-04-08T07:41:40.624Z,11.94
2023-04-08T07:44:09.205Z,11.44
2023-04-08T07:46:39.437Z,11.00
2023-04-08T07:49:08.119Z,10.60
2023-04-08T07:51:36.704Z,10.50
2023-04-08T07:54:05.491Z,10.40
2023-04-08T07:56:34.076Z,10.48
2023-04-08T07:59:02.866Z,10.50
2023-04-08T08:01:35.091Z,10.70
2023-04-08T08:04:04.488Z,10.90
2023-04-08T08:06:33.025Z,11.00
2023-04-08T08:09:01.610Z,11.00
2023-04-08T08:11:30.402Z,10.94
2023-04-08T08:13:59.087Z,10.90
2023-04-08T08:16:32.347Z,10.90
2023-04-08T08:19:01.731Z,10.80
2023-04-08T08:21:30.365Z,10.80
2023-04-08T08:23:59.973Z,10.70
2023-04-08T08:26:28.968Z,10.70
2023-04-08T08:28:57.656Z,10.80
2023-04-08T08:31:26.194Z,10.70
2023-04-08T08:33:54.930Z,10.60
2023-04-08T08:36:23.619Z,10.60
2023-04-08T08:38:53.856Z,10.60
2023-04-08T08:41:22.523Z,10.50
2023-04-08T08:43:52.307Z,10.40
2023-04-08T08:46:21.896Z,10.30
2023-04-08T08:48:50.734Z,10.30
2023-04-08T08:51:19.628Z,10.30
2023-04-08T08:53:48.326Z,10.32
2023-04-08T08:56:18.677Z,10.40
2023-04-08T08:58:48.043Z,10.40
2023-04-08T09:01:49.178Z,10.30
2023-04-08T09:04:20.894Z,10.30
2023-04-08T09:07:04.999Z,10.30
2023-04-08T09:09:53.258Z,10.38
2023-04-08T09:12:22.678Z,10.56
2023-04-08T09:14:52.007Z,10.68
2023-04-08T09:17:47.380Z,10.80
2023-04-08T09:20:16.463Z,10.90
2023-04-08T09:22:54.067Z,10.80
2023-04-08T09:25:34.213Z,10.66
2023-04-08T09:28:03.504Z,10.70
2023-04-08T09:30:33.200Z,10.70
2023-04-08T09:33:04.712Z,10.80
2023-04-08T09:35:33.278Z,10.70
2023-04-08T09:38:02.860Z,10.70
2023-04-08T09:40:38.516Z,10.70
2023-04-08T09:43:12.422Z,10.70
2023-04-08T09:45:43.278Z,10.70
2023-04-08T09:48:24.959Z,10.60
2023-04-08T09:50:58.126Z,10.58
2023-04-08T09:53:41.890Z,10.52
2023-04-08T09:56:13.308Z,10.50
2023-04-08T09:58:54.499Z,10.50
2023-04-08T10:01:40.366Z,10.50
2023-04-08T10:04:16.221Z,10.50
2023-04-08T10:06:46.311Z,10.50
2023-04-08T10:09:15.067Z,10.60
2023-04-08T10:11:43.960Z,10.60
2023-04-08T10:14:12.952Z,10.60
2023-04-08T10:16:41.668Z,10.60
2023-04-08T10:19:43.304Z,10.60
2023-04-08T10:22:30.728Z,10.68
2023-04-08T10:25:17.538Z,10.72
2023-04-08T10:27:46.861Z,10.84
2023-04-08T10:30:33.650Z,10.90
2023-04-08T10:33:02.441Z,10.90
2023-04-08T10:35:35.140Z,10.90
2023-04-08T10:38:04.324Z,11.00
2023-04-08T10:40:39.202Z,11.10
2023-04-08T10:43:08.452Z,11.20
2023-04-08T10:45:37.833Z,11.30
2023-04-08T10:48:22.753Z,11.30
2023-04-08T10:50:59.742Z,11.30
2023-04-08T10:53:36.037Z,11.36
2023-04-08T10:56:16.672Z,11.40
2023-04-08T10:58:56.835Z,11.48
2023-04-08T11:01:26.492Z,11.40
2023-04-08T11:03:55.409Z,11.46
2023-04-08T11:06:25.209Z,11.50
2023-04-08T11:08:53.792Z,11.60
2023-04-08T11:11:23.090Z,11.70
2023-04-08T11:13:53.634Z,11.90
2023-04-08T11:16:23.631Z,12.16
2023-04-08T11:18:53.864Z,12.20
2023-04-08T11:21:29.848Z,12.30
2023-04-08T11:23:58.609Z,12.30
2023-04-08T11:26:28.137Z,12.20
2023-04-08T11:28:58.798Z,12.20
2023-04-08T11:31:28.212Z,12.18
2023-04-08T11:33:57.039Z,12.30
2023-04-08T11:36:27.523Z,12.50
2023-04-08T11:38:56.174Z,12.64
2023-04-08T11:41:24.947Z,12.80
2023-04-08T11:43:57.530Z,12.80
2023-04-08T11:46:26.320Z,12.70
2023-04-08T11:49:04.243Z,12.70
2023-04-08T11:51:35.094Z,12.60
2023-04-08T11:54:09.808Z,12.50
2023-04-08T11:56:47.479Z,12.60
2023-04-08T11:59:16.169Z,12.52
2023-04-08T12:01:44.797Z,12.60
2023-04-08T12:04:13.798Z,12.50
2023-04-08T12:06:43.966Z,12.50
2023-04-08T12:09:12.876Z,12.50
2023-04-08T12:11:41.546Z,12.46
2023-04-08T12:14:10.255Z,12.40
2023-04-08T12:16:38.861Z,12.40
2023-04-08T12:19:07.818Z,12.30
2023-04-08T12:21:36.403Z,12.30
2023-04-08T12:24:05.187Z,12.30
2023-04-08T12:26:33.769Z,12.10
2023-04-08T12:29:02.670Z,12.02
2023-04-08T12:31:31.291Z,12.00
2023-04-08T12:33:59.934Z,12.00
2023-04-08T12:36:28.700Z,12.00
2023-04-08T12:38:57.617Z,12.00
2023-04-08T12:41:26.207Z,12.10
2023-04-08T12:43:54.797Z,12.16
2023-04-08T12:46:23.743Z,12.20
2023-04-08T12:49:03.083Z,12.28
2023-04-08T12:51:32.723Z,12.30
2023-04-08T12:54:03.449Z,12.20
2023-04-08T12:56:33.173Z,12.00
2023-04-08T12:59:01.960Z,12.04
2023-04-08T13:01:31.281Z,12.20
2023-04-08T13:04:00.537Z,12.40
2023-04-08T13:06:29.256Z,12.60
2023-04-08T13:08:58.050Z,12.64
2023-04-08T13:11:26.936Z,12.70
2023-04-08T13:13:55.524Z,12.70
2023-04-08T13:16:24.256Z,12.60
2023-04-08T13:18:53.787Z,12.30
2023-04-08T13:21:22.398Z,12.20
2023-04-08T13:23:51.213Z,12.18
2023-04-08T13:26:19.878Z,12.00
2023-04-08T13:28:56.635Z,11.92
2023-04-08T13:31:26.425Z,12.00
2023-04-08T13:33:58.005Z,11.90
2023-04-08T13:36:29.022Z,11.90
2023-04-08T13:38:57.949Z,11.94
2023-04-08T13:41:28.451Z,11.90
2023-04-08T13:43:57.373Z,11.80
2023-04-08T13:46:26.091Z,11.70
2023-04-08T13:48:55.165Z,11.70
2023-04-08T13:51:23.858Z,11.72
2023-04-08T13:53:52.637Z,11.80
2023-04-08T13:56:21.417Z,11.80
2023-04-08T13:58:56.447Z,11.80
2023-04-08T14:01:26.472Z,11.72
2023-04-08T14:03:55.154Z,11.70
2023-04-08T14:06:23.754Z,11.64
2023-04-08T14:08:52.666Z,11.70
2023-04-08T14:11:22.140Z,11.70
2023-04-08T14:13:50.637Z,11.70
2023-04-08T14:16:20.042Z,11.66
2023-04-08T14:18:49.021Z,11.60
2023-04-08T14:21:19.036Z,11.60
2023-04-08T14:23:47.725Z,11.70
2023-04-08T14:26:16.724Z,11.80
2023-04-08T14:28:45.403Z,11.90
2023-04-08T14:31:15.270Z,11.80
2023-04-08T14:33:43.803Z,11.74
2023-04-08T14:36:12.510Z,11.70
2023-04-08T14:38:41.483Z,11.70
2023-04-08T14:41:10.580Z,11.60
2023-04-08T14:43:39.062Z,11.60
2023-04-08T14:46:08.094Z,11.60
2023-04-08T14:48:36.743Z,11.52
2023-04-08T14:51:07.005Z,11.60
2023-04-08T14:53:35.755Z,11.54
2023-04-08T14:56:05.468Z,11.60
2023-04-08T14:58:34.151Z,11.50
2023-04-08T15:01:02.768Z,11.60
2023-04-08T15:03:31.504Z,11.60
2023-04-08T15:06:01.547Z,11.66
2023-04-08T15:08:30.232Z,11.70
2023-04-08T15:10:58.813Z,11.60
2023-04-08T15:13:27.396Z,11.60
2023-04-08T15:15:56.129Z,11.50
2023-04-08T15:18:24.883Z,11.40
2023-04-08T15:20:53.562Z,11.30
2023-04-08T15:23:22.366Z,11.30
2023-04-08T15:25:51.428Z,11.30
2023-04-08T15:28:21.057Z,11.30
2023-04-08T15:30:50.708Z,11.30
2023-04-08T15:33:20.377Z,11.24
2023-04-08T15:35:48.974Z,11.30
2023-04-08T15:38:17.953Z,11.20
2023-04-08T15:40:48.191Z,11.20
2023-04-08T15:43:17.078Z,11.10
2023-04-08T15:45:46.751Z,11.00
2023-04-08T15:48:15.777Z,11.00
2023-04-08T15:50:44.282Z,10.90
2023-04-08T15:53:13.050Z,10.90
2023-04-08T15:55:42.367Z,10.82
2023-04-08T15:58:10.961Z,10.80
2023-04-08T16:00:39.822Z,10.90
2023-04-08T16:03:12.247Z,10.90
2023-04-08T16:05:42.207Z,10.80
2023-04-08T16:08:10.795Z,10.80
2023-04-08T16:10:39.374Z,10.80
2023-04-08T16:13:07.859Z,10.80
2023-04-08T16:15:36.543Z,10.72
2023-04-08T16:18:06.776Z,10.70
2023-04-08T16:20:39.144Z,10.70
2023-04-08T16:23:07.731Z,10.70
2023-04-08T16:25:36.921Z,10.70
2023-04-08T16:28:05.614Z,10.70
2023-04-08T16:30:36.566Z,10.70
2023-04-08T16:33:06.462Z,10.70
2023-04-08T16:35:36.003Z,10.70
2023-04-08T16:38:04.971Z,10.60
2023-04-08T16:40:34.209Z,10.60
2023-04-08T16:43:05.026Z,10.58
2023-04-08T16:45:33.636Z,10.50
2023-04-08T16:48:02.818Z,10.50
2023-04-08T16:50:31.578Z,10.50
2023-04-08T16:53:00.161Z,10.40
2023-04-08T16:55:36.153Z,10.40
2023-04-08T16:58:05.215Z,10.36
2023-04-08T17:00:34.112Z,10.30
2023-04-08T17:03:02.866Z,10.20
2023-04-08T17:05:32.095Z,10.20
2023-04-08T17:08:01.235Z,10.20
2023-04-08T17:10:29.879Z,10.10
2023-04-08T17:12:58.565Z,10.10
2023-04-08T17:15:27.487Z,10.00
2023-04-08T17:17:56.267Z,10.00
2023-04-08T17:20:26.780Z,9.98
2023-04-08T17:22:55.363Z,9.90
2023-04-08T17:25:24.878Z,9.90
2023-04-08T17:27:53.468Z,9.80
2023-04-08T17:30:22.354Z,9.70
2023-04-08T17:32:50.916Z,9.70
2023-04-08T17:35:19.618Z,9.60
2023-04-08T17:37:48.618Z,9.50
2023-04-08T17:40:17.895Z,9.50
2023-04-08T17:42:46.909Z,9.42
2023-04-08T17:45:15.682Z,9.40
2023-04-08T17:47:44.218Z,9.32
2023-04-08T17:50:12.972Z,9.30
2023-04-08T17:52:48.044Z,9.20
2023-04-08T17:55:17.016Z,9.20
2023-04-08T17:57:45.579Z,9.10
2023-04-08T18:00:14.552Z,9.10
2023-04-08T18:02:43.314Z,9.00
2023-04-08T18:05:12.461Z,9.00
2023-04-08T18:07:41.145Z,8.90
2023-04-08T18:10:10.209Z,8.80
2023-04-08T18:12:38.730Z,8.70
2023-04-08T18:15:08.403Z,8.60
2023-04-08T18:17:36.941Z,8.50
2023-04-08T18:20:07.142Z,8.50
2023-04-08T18:22:35.624Z,8.40
2023-04-08T18:25:05.467Z,8.40
2023-04-08T18:27:34.431Z,8.30
2023-04-08T18:30:02.933Z,8.30
2023-04-08T18:32:31.530Z,8.20
2023-04-08T18:35:00.384Z,8.18
2023-04-08T18:37:30.610Z,8.12
2023-04-08T18:40:00.013Z,8.10
2023-04-08T18:42:28.747Z,8.00
2023-04-08T18:44:57.290Z,7.90
2023-04-08T18:47:25.895Z,7.80
2023-04-08T18:49:54.659Z,7.80
2023-04-08T18:52:23.266Z,7.70
2023-04-08T18:54:51.930Z,7.60
2023-04-08T18:57:20.624Z,7.60
2023-04-08T18:59:49.311Z,7.50
2023-04-08T19:02:17.929Z,7.40
2023-04-08T19:04:47.019Z,7.40
2023-04-08T19:07:17.313Z,7.30
2023-04-08T19:09:46.132Z,7.30
2023-04-08T19:12:14.783Z,7.20
2023-04-08T19:14:43.369Z,7.18
2023-04-08T19:17:12.156Z,7.10
2023-04-08T19:19:40.861Z,7.00
2023-04-08T19:22:09.327Z,6.90
2023-04-08T19:24:38.012Z,6.80
2023-04-08T19:27:06.708Z,6.80
2023-04-08T19:29:35.283Z,6.80
2023-04-08T19:32:04.480Z,6.80
2023-04-08T19:34:38.469Z,6.76
2023-04-08T19:37:07.595Z,6.70
2023-04-08T19:39:36.274Z,6.70
2023-04-08T19:42:05.381Z,6.60
2023-04-08T19:44:34.063Z,6.60
2023-04-08T19:47:02.958Z,6.60
2023-04-08T19:49:31.537Z,6.50
2023-04-08T19:52:00.327Z,6.50
2023-04-08T19:54:30.444Z,6.40
2023-04-08T19:56:59.541Z,6.32
2023-04-08T19:59:28.233Z,6.30
2023-04-08T20:01:56.808Z,6.20
2023-04-08T20:04:25.712Z,6.20
2023-04-08T20:06:54.700Z,6.10
2023-04-08T20:09:23.399Z,6.10
2023-04-08T20:11:52.487Z,6.00
2023-04-08T20:14:21.170Z,6.00
2023-04-08T20:16:49.855Z,5.94
2023-04-08T20:19:18.445Z,5.90
2023-04-08T20:21:47.139Z,5.90
2023-04-08T20:24:16.577Z,5.80
2023-04-08T20:26:45.427Z,5.80
2023-04-08T20:29:13.915Z,5.78
2023-04-08T20:31:43.844Z,5.70
2023-04-08T20:34:13.128Z,5.70
2023-04-08T20:36:41.608Z,5.60
2023-04-08T20:39:11.165Z,5.50
2023-04-08T20:41:40.010Z,5.40
2023-04-08T20:44:10.804Z,5.32
2023-04-08T20:46:40.152Z,5.24
2023-04-08T20:49:08.856Z,5.20
2023-04-08T20:51:37.518Z,5.10
2023-04-08T20:54:06.109Z,5.10
2023-04-08T20:56:34.790Z,5.10
2023-04-08T20:59:03.479Z,5.10
2023-04-08T21:01:32.296Z,5.20
2023-04-08T21:04:01.168Z,5.20
2023-04-08T21:06:29.637Z,5.20
2023-04-08T21:08:58.531Z,5.20
2023-04-08T21:11:28.867Z,5.20
2023-04-08T21:13:57.441Z,5.18
2023-04-08T21:16:26.133Z,5.10
2023-04-08T21:18:55.119Z,5.10
2023-04-08T21:21:23.628Z,5.00
2023-04-08T21:23:52.286Z,5.00
2023-04-08T21:26:22.211Z,5.00
2023-04-08T21:28:51.301Z,5.00
2023-04-08T21:31:19.915Z,4.92
2023-04-08T21:33:48.670Z,4.90
2023-04-08T21:36:17.486Z,4.90
2023-04-08T21:38:46.145Z,4.80
2023-04-08T21:41:14.733Z,4.80
2023-04-08T21:43:43.315Z,4.80
2023-04-08T21:46:12.123Z,4.70
2023-04-08T21:48:40.894Z,4.70
2023-04-08T21:51:09.477Z,4.70
2023-04-08T21:53:39.081Z,4.64
2023-04-08T21:56:08.602Z,4.60
2023-04-08T21:58:37.179Z,4.58
2023-04-08T22:01:05.785Z,4.50
2023-04-08T22:03:34.675Z,4.50
2023-04-08T22:06:03.655Z,4.50
2023-04-08T22:08:32.863Z,4.40
2023-04-08T22:11:01.429Z,4.40
2023-04-08T22:13:30.026Z,4.38
2023-04-08T22:15:58.500Z,4.30
2023-04-08T22:18:27.595Z,4.30
2023-04-08T22:20:56.383Z,4.30
2023-04-08T22:23:24.983Z,4.20
2023-04-08T22:25:53.654Z,4.20
2023-04-08T22:28:22.550Z,4.10
2023-04-08T22:30:51.183Z,4.10
2023-04-08T22:33:19.819Z,4.00
2023-04-08T22:35:48.431Z,4.00
2023-04-08T22:38:17.408Z,4.00
2023-04-08T22:40:46.292Z,4.00
2023-04-08T22:43:14.776Z,4.00
2023-04-08T22:45:43.356Z,3.92
2023-04-08T22:48:11.943Z,3.90
2023-04-08T22:50:41.572Z,3.90
2023-04-08T22:53:10.236Z,3.90
2023-04-08T22:55:38.927Z,3.84
2023-04-08T22:58:07.507Z,3.80
2023-04-08T23:00:36.301Z,3.80
2023-04-08T23:03:05.079Z,3.80
2023-04-08T23:05:33.992Z,3.74
2023-04-08T23:08:02.767Z,3.70
2023-04-08T23:10:31.587Z,3.70
2023-04-08T23:13:00.143Z,3.70
2023-04-08T23:15:28.928Z,3.60
2023-04-08T23:17:57.660Z,3.60
2023-04-08T23:20:26.406Z,3.58
2023-04-08T23:22:54.987Z,3.50
2023-04-08T23:25:23.571Z,3.50
2023-04-08T23:27:52.261Z,3.50
2023-04-08T23:30:21.194Z,3.50
2023-04-08T23:32:49.677Z,3.40
2023-04-08T23:35:18.633Z,3.40
2023-04-08T23:37:47.319Z,3.40
2023-04-08T23:40:16.208Z,3.30
2023-04-08T23:42:44.692Z,3.30
2023-04-08T23:45:13.384Z,3.20
2023-04-08T23:47:42.160Z,3.20
2023-04-08T23:50:11.165Z,3.20
2023-04-08T23:52:39.910Z,3.20
2023-04-08T23:55:09.386Z,3.20
2023-04-08T23:57:37.844Z,3.18
